createdAt,value
2022-08-17T00:00:42.987Z,30.54
2022-08-17T00:03:11.456Z,30.62
2022-08-17T00:05:54.784Z,30.66
2022-08-17T00:08:47.918Z,30.78
2022-08-17T00:11:20.441Z,30.87
2022-08-17T00:13:55.133Z,30.92
2022-08-17T00:16:50.254Z,30.89
2022-08-17T00:19:23.333Z,30.78
2022-08-17T00:22:31.323Z,30.82
2022-08-17T00:24:42.460Z,30.72
2022-08-17T00:27:10.660Z,30.81
2022-08-17T00:29:38.823Z,30.86
2022-08-17T00:33:22.741Z,30.87
2022-08-17T00:34:55.568Z,30.92
2022-08-17T00:37:23.681Z,31.06
2022-08-17T00:39:51.726Z,30.93
2022-08-17T00:42:20.552Z,31.11
2022-08-17T00:44:48.912Z,30.95
2022-08-17T00:47:16.873Z,30.86
2022-08-17T00:49:44.832Z,30.79
2022-08-17T00:52:16.962Z,30.75
2022-08-17T00:54:49.801Z,30.66
2022-08-17T00:57:23.681Z,30.53
2022-08-17T01:00:02.430Z,30.80
2022-08-17T01:02:41.720Z,30.63
2022-08-17T01:05:18.453Z,30.63
2022-08-17T01:07:51.141Z,30.48
2022-08-17T01:11:00.678Z,30.44
2022-08-17T01:13:12.932Z,30.51
2022-08-17T01:15:48.821Z,30.55
2022-08-17T01:18:17.278Z,30.58
2022-08-17T01:20:49.721Z,30.60
2022-08-17T01:23:22.429Z,30.51
2022-08-17T01:25:52.891Z,30.37
2022-08-17T01:28:33.315Z,30.42
2022-08-17T01:31:12.731Z,30.65
2022-08-17T01:33:41.189Z,30.51
2022-08-17T01:36:09.820Z,30.56
2022-08-17T01:38:39.382Z,30.62
2022-08-17T01:41:12.722Z,30.34
2022-08-17T01:43:57.853Z,30.36
2022-08-17T01:46:33.914Z,30.33
2022-08-17T01:49:07.034Z,30.19
2022-08-17T01:51:35.310Z,30.42
2022-08-17T01:54:10.670Z,30.34
2022-08-17T01:56:43.001Z,30.52
2022-08-17T01:59:12.500Z,30.36
2022-08-17T02:01:41.410Z,30.45
2022-08-17T02:04:09.471Z,29.80
2022-08-17T02:06:44.851Z,29.40
2022-08-17T02:09:16.905Z,29.15
2022-08-17T02:11:46.268Z,29.25
2022-08-17T02:14:14.720Z,29.69
2022-08-17T02:16:43.281Z,29.75
2022-08-17T02:19:16.141Z,29.76
2022-08-17T02:21:46.818Z,29.56
2022-08-17T02:24:58.655Z,29.68
2022-08-17T02:27:10.730Z,30.04
2022-08-17T02:29:39.200Z,29.91
2022-08-17T02:32:07.512Z,29.84
2022-08-17T02:34:35.780Z,29.32
2022-08-17T02:37:03.750Z,29.17
2022-08-17T02:39:31.692Z,28.86
2022-08-17T02:42:03.679Z,28.12
2022-08-17T02:44:39.995Z,28.09
2022-08-17T02:47:10.853Z,28.41
2022-08-17T02:49:38.803Z,28.77
2022-08-17T02:52:08.202Z,28.62
2022-08-17T02:54:39.752Z,28.20
2022-08-17T02:57:10.764Z,28.33
2022-08-17T02:59:42.374Z,28.39
2022-08-17T03:02:14.962Z,28.70
2022-08-17T03:04:43.142Z,28.90
2022-08-17T03:07:12.339Z,28.91
2022-08-17T03:09:40.270Z,29.18
2022-08-17T03:12:13.400Z,28.87
2022-08-17T03:14:43.965Z,28.59
2022-08-17T03:17:17.012Z,28.69
2022-08-17T03:19:45.770Z,27.93
2022-08-17T03:22:37.067Z,28.20
2022-08-17T03:25:02.182Z,28.01
2022-08-17T03:27:30.399Z,27.82
2022-08-17T03:29:58.417Z,28.17
2022-08-17T03:32:26.506Z,28.27
2022-08-17T03:35:00.757Z,28.63
2022-08-17T03:37:28.766Z,28.76
2022-08-17T03:39:57.115Z,29.05
2022-08-17T03:42:31.271Z,29.41
